This is the latest recevied weather packets stored in our database for station/object NO4D. If no packets are shown the sender has not sent any weather packets the latest 1 day(s).
| Time | Temp. | Humidity | Pressure | Rain* | Wind** | Luminosity | Snow |
|---|---|---|---|---|---|---|---|
| 1836274582 | 21.67° C | 83% | 1018.8 hPa | 0 mm | 0.45 m/s, 194° | 0 W/m² | - |
| 1836274436 | 21.67° C | 83% | 1018.5 hPa | 0 mm | 0.45 m/s, 193° | 0 W/m² | - |
| 1836274280 | 21.67° C | 83% | 1018.6 hPa | 0 mm | 0.89 m/s, 275° | 0 W/m² | - |
| 1836274134 | 21.67° C | 83% | 1018.5 hPa | 0 mm | 0.89 m/s, 284° | 0 W/m² | - |
| 1836273980 | 21.67° C | 83% | 1018.7 hPa | 0 mm | 0.45 m/s, 200° | 0 W/m² | - |
| 1778088385 | 21.67° C | 88% | 1014.3 hPa | 0 mm | 0.89 m/s, 204° | 595 W/m² | - |
| 1778088081 | 21.11° C | 89% | 1014.6 hPa | 0 mm | 0.89 m/s, 176° | 511 W/m² | - |
| 1778087779 | 21.11° C | 92% | 1015.4 hPa | 0 mm | 1.34 m/s, 172° | 685 W/m² | - |
| 1778087477 | 20.56° C | 92% | 1015.4 hPa | 0 mm | 1.79 m/s, 233° | 873 W/m² | - |
| 1778087174 | 20° C | 91% | 1015.3 hPa | 1.27 mm | 2.24 m/s, 207° | 829 W/m² | - |
| 1778086871 | 19.44° C | 90% | 1015.8 hPa | 4.32 mm | 0.45 m/s, 197° | 263 W/m² | - |
| 1778086569 | 20.56° C | 86% | 1015.8 hPa | 3.05 mm | 0.45 m/s, 196° | 201 W/m² | - |
| 1778086265 | 21.11° C | 82% | 1016.4 hPa | 0 mm | 0.89 m/s, 212° | 54 W/m² | - |
| 1778085962 | 21.11° C | 81% | 1015.9 hPa | 0 mm | 2.24 m/s, 264° | 42 W/m² | - |
| 1778085660 | 21.11° C | 80% | 1015.8 hPa | 0 mm | 1.34 m/s, 203° | 154 W/m² | - |
| 1778085355 | 21.11° C | 82% | 1015.9 hPa | 0 mm | 1.34 m/s, 266° | 223 W/m² | - |
| 1778085052 | 21.11° C | 82% | 1015.9 hPa | 0 mm | 1.79 m/s, 219° | 145 W/m² | - |
| 1778084748 | 21.11° C | 80% | 1015.7 hPa | 0 mm | 2.24 m/s, 239° | 186 W/m² | - |
| 1778084445 | 21.11° C | 79% | 1015.2 hPa | 0 mm | 1.34 m/s, 221° | 227 W/m² | - |
| 1778084143 | 21.67° C | 77% | 1014.8 hPa | 0 mm | 0.45 m/s, 212° | 153 W/m² | - |
| 1778083839 | 21.67° C | 75% | 1015.5 hPa | 0 mm | 1.79 m/s, 174° | 136 W/m² | - |
| 1778083537 | 21.67° C | 74% | 1015.7 hPa | 0 mm | 2.24 m/s, 233° | 115 W/m² | - |
| 1778083234 | 21.67° C | 74% | 1015.4 hPa | 0 mm | 2.68 m/s, 209° | 162 W/m² | - |
| 1778082932 | 21.67° C | 74% | 1015.1 hPa | 0 mm | 2.68 m/s, 225° | 225 W/m² | - |
| 1778081823 | 21.67° C | 73% | 1015.1 hPa | 0 mm | 3.13 m/s, 263° | 294 W/m² | - |
* Rain latest hour (hover to see other rain measurements)
** Current wind speed in m/s (hover to see current wind gust speed)